createdAt,value
2018-12-16T00:04:01.482Z,2.65
2018-12-16T00:14:29.522Z,2.52
2018-12-16T00:19:33.870Z,2.57
2018-12-16T00:24:38.660Z,2.62
2018-12-16T00:35:01.799Z,2.59
2018-12-16T00:40:09.210Z,2.56
2018-12-16T00:45:14.081Z,2.51
2018-12-16T00:55:40.319Z,2.53
2018-12-16T01:06:01.602Z,2.63
2018-12-16T01:11:06.277Z,2.79
2018-12-16T01:21:31.666Z,3.02
2018-12-16T01:26:36.122Z,3.13
2018-12-16T01:37:08.579Z,2.89
2018-12-16T01:47:35.214Z,2.72
2018-12-16T01:58:04.784Z,2.68
2018-12-16T02:03:09.474Z,2.69
2018-12-16T02:08:16.400Z,2.73
2018-12-16T02:18:40.932Z,2.87
2018-12-16T02:23:45.733Z,2.88
2018-12-16T02:28:51.306Z,2.88
2018-12-16T02:33:56.924Z,2.88
2018-12-16T02:39:01.811Z,2.93
2018-12-16T02:44:07.831Z,2.97
2018-12-16T02:49:13.194Z,2.93
2018-12-16T02:54:18.996Z,2.94
2018-12-16T02:59:23.741Z,2.85
2018-12-16T03:04:30.573Z,2.74
2018-12-16T03:09:36.005Z,2.77
2018-12-16T03:14:40.909Z,2.78
2018-12-16T03:19:45.951Z,2.83
2018-12-16T03:30:12.875Z,2.84
2018-12-16T03:35:18.019Z,2.83
2018-12-16T03:45:42.358Z,2.80
2018-12-16T03:50:46.883Z,2.72
2018-12-16T03:55:52.890Z,2.76
2018-12-16T04:00:59.218Z,2.75
2018-12-16T04:06:04.192Z,2.82
2018-12-16T04:11:09.768Z,2.75
2018-12-16T04:16:15.831Z,2.80
2018-12-16T04:21:21.354Z,2.91
2018-12-16T04:26:26.146Z,2.96
2018-12-16T04:31:31.602Z,2.84
2018-12-16T04:42:03.483Z,3.10
2018-12-16T04:47:08.223Z,3.06
2018-12-16T04:52:12.758Z,3.08
2018-12-16T04:57:17.749Z,3.13
2018-12-16T05:02:23.173Z,3.17
2018-12-16T05:12:48.302Z,3.10
2018-12-16T05:17:55.640Z,3.14
2018-12-16T05:23:01.599Z,3.02
2018-12-16T05:28:06.843Z,3.03
2018-12-16T05:33:11.609Z,3.10
2018-12-16T05:38:16.201Z,3.20
2018-12-16T05:43:22.132Z,3.21
2018-12-16T05:48:27.877Z,3.20
2018-12-16T05:53:36.004Z,3.26
2018-12-16T05:58:42.599Z,3.30
2018-12-16T06:03:49.514Z,3.31
2018-12-16T06:08:55.461Z,3.30
2018-12-16T06:14:00.893Z,3.33
2018-12-16T06:19:05.122Z,3.34
2018-12-16T06:24:11.052Z,3.27
2018-12-16T06:36:56.726Z,3.13
2018-12-16T06:47:32.891Z,3.31
2018-12-16T06:52:38.145Z,3.31
2018-12-16T06:57:43.142Z,3.31
2018-12-16T07:02:53.212Z,3.35
2018-12-16T07:07:59.602Z,3.41
2018-12-16T07:13:05.354Z,3.35
2018-12-16T07:18:11.005Z,3.36
2018-12-16T07:23:18.373Z,3.38
2018-12-16T07:33:40.262Z,3.35
2018-12-16T07:38:45.688Z,3.42
2018-12-16T07:43:51.176Z,3.56
2018-12-16T07:48:55.848Z,3.57
2018-12-16T07:54:00.078Z,3.49
2018-12-16T07:59:05.208Z,3.53
2018-12-16T08:09:31.310Z,3.78
2018-12-16T08:20:07.655Z,3.89
2018-12-16T08:30:40.558Z,4.06
2018-12-16T08:35:46.117Z,4.14
2018-12-16T08:40:51.188Z,4.22
2018-12-16T08:45:56.463Z,4.14
2018-12-16T08:51:02.856Z,4.23
2018-12-16T08:56:09.822Z,4.28
2018-12-16T09:06:36.041Z,4.33
2018-12-16T09:11:43.825Z,4.42
2018-12-16T09:16:49.167Z,4.48
2018-12-16T09:21:54.450Z,4.51
2018-12-16T09:27:00.592Z,4.52
2018-12-16T09:32:06.303Z,4.48
2018-12-16T09:37:12.361Z,4.47
2018-12-16T09:42:18.069Z,4.49
2018-12-16T09:52:44.041Z,4.47
2018-12-16T09:57:48.881Z,4.50
2018-12-16T10:02:53.646Z,4.38
2018-12-16T10:07:57.887Z,4.42
2018-12-16T10:13:02.163Z,4.51
2018-12-16T10:18:06.525Z,4.54
2018-12-16T10:28:32.540Z,4.58
2018-12-16T10:33:37.595Z,4.63
2018-12-16T10:38:43.507Z,4.71
2018-12-16T10:43:50.156Z,4.59
2018-12-16T10:48:56.965Z,4.45
2018-12-16T10:59:23.991Z,4.24
2018-12-16T11:04:29.128Z,4.20
2018-12-16T11:09:36.422Z,4.12
2018-12-16T11:14:42.279Z,4.05
2018-12-16T11:19:47.088Z,4.10
2018-12-16T11:24:52.423Z,4.00
2018-12-16T11:29:57.590Z,3.89
2018-12-16T11:35:02.215Z,3.83
2018-12-16T11:40:08.341Z,3.89
2018-12-16T11:45:13.745Z,3.99
2018-12-16T11:50:18.829Z,4.23
2018-12-16T11:55:23.159Z,4.39
2018-12-16T12:00:28.999Z,4.53
2018-12-16T12:05:35.144Z,4.58
2018-12-16T12:10:41.045Z,4.52
2018-12-16T12:15:47.341Z,4.52
2018-12-16T12:20:52.603Z,4.47
2018-12-16T12:25:57.225Z,4.42
2018-12-16T12:31:07.023Z,4.30
2018-12-16T12:41:44.346Z,4.23
2018-12-16T12:46:49.201Z,4.19
2018-12-16T12:51:57.413Z,4.27
2018-12-16T12:57:02.880Z,4.37
2018-12-16T13:02:08.283Z,4.30
2018-12-16T13:12:37.186Z,4.42
2018-12-16T13:17:45.735Z,4.37
2018-12-16T13:22:53.010Z,4.37
2018-12-16T13:33:19.294Z,4.42
2018-12-16T13:38:25.737Z,4.44
2018-12-16T13:48:59.284Z,4.44
2018-12-16T13:54:03.657Z,4.41
2018-12-16T13:59:08.045Z,4.43
2018-12-16T14:04:12.779Z,4.43
2018-12-16T14:14:40.344Z,4.41
2018-12-16T14:19:46.744Z,4.43
2018-12-16T14:24:51.381Z,4.44
2018-12-16T14:29:56.807Z,4.42
2018-12-16T14:35:01.668Z,4.44
2018-12-16T14:45:30.522Z,4.44
2018-12-16T14:50:36.586Z,4.42
2018-12-16T14:55:41.613Z,4.39
2018-12-16T15:00:47.644Z,4.40
2018-12-16T15:05:56.954Z,4.38
2018-12-16T15:11:02.945Z,4.37
2018-12-16T15:16:10.333Z,4.35
2018-12-16T15:21:15.688Z,4.36
2018-12-16T15:26:22.504Z,4.37
2018-12-16T15:31:27.494Z,4.37
2018-12-16T15:42:01.144Z,4.35
2018-12-16T15:47:05.664Z,4.33
2018-12-16T15:52:10.295Z,4.35
2018-12-16T15:57:15.166Z,4.40
2018-12-16T16:02:20.389Z,4.44
2018-12-16T16:07:26.328Z,4.44
2018-12-16T16:12:30.563Z,4.48
2018-12-16T16:23:01.624Z,4.51
2018-12-16T16:28:06.093Z,4.51
2018-12-16T16:33:10.663Z,4.54
2018-12-16T16:38:15.287Z,4.51
2018-12-16T16:43:19.777Z,4.48
2018-12-16T16:53:49.993Z,4.51
2018-12-16T16:58:55.113Z,4.51
2018-12-16T17:04:00.301Z,4.48
2018-12-16T17:09:08.580Z,4.56
2018-12-16T17:14:12.879Z,4.60
2018-12-16T17:19:17.530Z,4.59
2018-12-16T17:29:50.444Z,4.60
2018-12-16T17:34:54.830Z,4.58
2018-12-16T17:39:59.559Z,4.59
2018-12-16T17:45:05.273Z,4.57
2018-12-16T17:50:10.003Z,4.59
2018-12-16T17:55:15.197Z,4.63
2018-12-16T18:00:20.283Z,4.64
2018-12-16T18:05:25.682Z,4.68
2018-12-16T18:15:58.980Z,4.72
2018-12-16T18:21:04.309Z,4.69
2018-12-16T18:26:11.340Z,4.73
2018-12-16T18:31:17.536Z,4.74
2018-12-16T18:36:24.634Z,4.71
2018-12-16T18:41:31.108Z,4.70
2018-12-16T18:46:38.494Z,4.56
2018-12-16T18:51:45.742Z,4.52
2018-12-16T18:56:57.077Z,4.52
2018-12-16T19:02:05.626Z,4.58
2018-12-16T19:07:10.863Z,4.60
2018-12-16T19:17:40.116Z,4.74
2018-12-16T19:22:45.254Z,4.82
2018-12-16T19:27:49.883Z,4.90
2018-12-16T19:32:55.458Z,4.94
2018-12-16T19:38:03.107Z,4.90
2018-12-16T19:43:09.151Z,4.89
2018-12-16T19:48:46.095Z,4.93
2018-12-16T20:03:22.172Z,4.67
2018-12-16T20:08:28.081Z,4.77
2018-12-16T20:13:32.522Z,4.82
2018-12-16T20:18:38.056Z,4.81
2018-12-16T20:29:15.462Z,4.89
2018-12-16T20:34:20.162Z,4.95
2018-12-16T20:39:25.268Z,4.99
2018-12-16T20:44:30.061Z,5.01
2018-12-16T20:49:35.019Z,5.03
2018-12-16T20:54:40.474Z,5.08
2018-12-16T20:59:45.359Z,5.05
2018-12-16T21:04:50.851Z,5.11
2018-12-16T21:09:55.493Z,5.08
2018-12-16T21:15:06.504Z,5.03
2018-12-16T21:20:12.073Z,5.08
2018-12-16T21:30:39.981Z,5.14
2018-12-16T21:41:09.349Z,5.13
2018-12-16T21:51:54.221Z,5.09
2018-12-16T21:56:59.945Z,4.97
2018-12-16T22:02:05.794Z,5.00
2018-12-16T22:07:21.506Z,5.13
2018-12-16T22:12:28.642Z,5.14
2018-12-16T22:22:55.559Z,5.08
2018-12-16T22:33:22.402Z,5.12
2018-12-16T22:38:27.238Z,5.19
2018-12-16T22:43:31.909Z,5.20
2018-12-16T22:48:37.845Z,5.17
2018-12-16T22:53:43.529Z,5.16
2018-12-16T22:58:54.313Z,5.28
2018-12-16T23:03:58.549Z,5.26
2018-12-16T23:09:05.443Z,5.32
2018-12-16T23:14:12.701Z,5.40
2018-12-16T23:19:20.415Z,5.43
2018-12-16T23:30:00.855Z,5.46
2018-12-16T23:40:32.645Z,5.36
2018-12-16T23:45:38.643Z,5.34
2018-12-16T23:50:43.283Z,5.33
